Terminal Aerodrome Forecast
Issued by NWS Central Illinois

Home | Current Version | Previous Version | Text Only | Print | Product List | Glossary On
Versions: 1 2 3 4 5 6 7 8 9 10 11 12 13 14 15 16 17 18 19 20 21 22 23 24 25 26 27
000
FTUS43 KILX 300944 AAA
TAFSPI
TAF AMD
KSPI 300944Z 3010/0106 26006KT P6SM SCT080
     FM301400 27008KT P6SM SCT040
     FM301800 30010KT P6SM VCTS BKN035CB
     FM010000 35006KT P6SM SCT040=

USA.gov is the U.S. government's official web portal to all federal, state and local government web resources and services.